createdAt,value
2018-07-31T00:01:23.462Z,79.80
2018-07-31T00:03:55.964Z,78.07
2018-07-31T00:06:27.999Z,80.60
2018-07-31T00:08:59.662Z,73.47
2018-07-31T00:11:31.846Z,70.27
2018-07-31T00:14:02.723Z,82.17
2018-07-31T00:16:34.877Z,75.40
2018-07-31T00:19:06.859Z,76.50
2018-07-31T00:21:38.861Z,76.33
2018-07-31T00:24:10.695Z,79.47
2018-07-31T00:26:42.788Z,74.77
2018-07-31T00:29:14.690Z,77.43
2018-07-31T00:31:46.511Z,72.60
2018-07-31T00:34:18.131Z,72.13
2018-07-31T00:36:49.938Z,72.87
2018-07-31T00:39:21.841Z,72.70
2018-07-31T00:41:53.761Z,71.77
2018-07-31T00:44:25.328Z,74.17
2018-07-31T00:46:57.305Z,75.87
2018-07-31T00:49:28.932Z,73.10
2018-07-31T00:52:01.012Z,77.70
2018-07-31T00:54:32.865Z,76.83
2018-07-31T00:57:05.164Z,79.83
2018-07-31T00:59:37.008Z,75.23
2018-07-31T01:02:09.131Z,73.53
2018-07-31T01:04:41.892Z,78.00
2018-07-31T01:07:13.859Z,79.73
2018-07-31T01:09:46.289Z,74.60
2018-07-31T01:12:18.188Z,82.70
2018-07-31T01:14:50.322Z,79.60
2018-07-31T01:17:22.284Z,73.33
2018-07-31T01:19:53.951Z,74.50
2018-07-31T01:22:25.859Z,77.40
2018-07-31T01:24:57.707Z,78.47
2018-07-31T01:27:29.546Z,79.47
2018-07-31T01:30:01.622Z,75.70
2018-07-31T01:32:33.878Z,79.60
2018-07-31T01:35:05.646Z,79.43
2018-07-31T01:37:37.678Z,81.40
2018-07-31T01:40:09.186Z,76.50
2018-07-31T01:42:41.206Z,74.70
2018-07-31T01:45:13.007Z,77.00
2018-07-31T01:47:45.875Z,79.60
2018-07-31T01:50:17.777Z,78.97
2018-07-31T01:52:50.513Z,80.70
2018-07-31T01:55:22.154Z,76.00
2018-07-31T01:57:55.517Z,81.70
2018-07-31T02:00:27.369Z,77.07
2018-07-31T02:02:59.309Z,78.20
2018-07-31T02:05:31.978Z,77.20
2018-07-31T02:08:03.951Z,70.47
2018-07-31T02:10:35.629Z,75.80
2018-07-31T02:13:08.654Z,78.37
2018-07-31T02:15:40.325Z,80.17
2018-07-31T02:18:12.443Z,74.10
2018-07-31T02:20:44.142Z,79.43
2018-07-31T02:23:16.703Z,77.07
2018-07-31T02:25:48.347Z,79.63
2018-07-31T02:28:20.425Z,78.33
2018-07-31T02:30:52.287Z,77.10
2018-07-31T02:33:24.297Z,81.17
2018-07-31T02:35:56.161Z,76.03
2018-07-31T02:38:28.382Z,76.83
2018-07-31T02:41:00.218Z,76.57
2018-07-31T02:43:32.415Z,77.83
2018-07-31T02:46:04.499Z,74.17
2018-07-31T02:48:36.390Z,75.90
2018-07-31T02:51:08.239Z,76.87
2018-07-31T02:53:39.998Z,77.80
2018-07-31T02:56:11.770Z,75.97
2018-07-31T02:58:42.794Z,78.83
2018-07-31T03:01:14.549Z,77.07
2018-07-31T03:03:46.682Z,81.80
2018-07-31T03:06:19.098Z,76.40
2018-07-31T03:08:51.106Z,78.23
2018-07-31T03:11:23.033Z,79.40
2018-07-31T03:13:55.050Z,81.50
2018-07-31T03:16:26.923Z,75.37
2018-07-31T03:19:00.035Z,77.60
2018-07-31T03:21:31.811Z,75.70
2018-07-31T03:24:03.655Z,77.87
2018-07-31T03:26:35.554Z,80.37
2018-07-31T03:29:07.665Z,76.90
2018-07-31T03:31:39.639Z,78.30
2018-07-31T03:34:11.707Z,80.47
2018-07-31T03:36:43.615Z,83.70
2018-07-31T03:39:15.759Z,77.50
2018-07-31T03:41:47.748Z,81.40
2018-07-31T03:44:19.965Z,82.33
2018-07-31T03:46:51.986Z,73.57
2018-07-31T03:49:24.127Z,82.37
2018-07-31T03:51:56.019Z,81.50
2018-07-31T03:54:28.183Z,86.13
2018-07-31T03:57:00.042Z,81.40
2018-07-31T03:59:32.042Z,84.33
2018-07-31T04:02:03.748Z,82.73
2018-07-31T04:04:35.723Z,85.87
2018-07-31T04:07:08.016Z,82.83
2018-07-31T04:09:39.893Z,88.10
2018-07-31T04:12:11.774Z,85.00
2018-07-31T04:14:43.868Z,81.87
2018-07-31T04:17:15.765Z,86.53
2018-07-31T04:19:47.953Z,87.10
2018-07-31T04:22:19.957Z,88.70
2018-07-31T04:24:52.366Z,83.00
2018-07-31T04:27:24.374Z,84.80
2018-07-31T04:29:56.748Z,86.30
2018-07-31T04:32:28.515Z,86.03
2018-07-31T04:35:00.583Z,87.73
2018-07-31T04:37:32.483Z,87.73
2018-07-31T04:40:03.634Z,90.03
2018-07-31T04:42:35.339Z,89.03
2018-07-31T04:45:08.568Z,90.97
2018-07-31T04:47:40.739Z,87.50
2018-07-31T04:50:12.534Z,87.27
2018-07-31T04:52:44.665Z,86.50
2018-07-31T04:55:17.138Z,88.30
2018-07-31T04:57:49.163Z,83.90
2018-07-31T05:00:21.254Z,80.63
2018-07-31T05:02:53.111Z,80.27
2018-07-31T05:05:24.910Z,85.57
2018-07-31T05:07:58.153Z,78.23
2018-07-31T05:10:30.267Z,81.73
2018-07-31T05:13:03.618Z,79.27
2018-07-31T05:15:35.759Z,73.23
2018-07-31T05:18:07.677Z,82.47
2018-07-31T05:20:39.702Z,84.20
2018-07-31T05:23:11.658Z,80.73
2018-07-31T05:25:43.927Z,82.30
2018-07-31T05:28:15.784Z,80.13
2018-07-31T05:30:47.546Z,84.97
2018-07-31T05:33:19.260Z,76.77
2018-07-31T05:35:51.741Z,78.83
2018-07-31T05:38:23.377Z,79.30
2018-07-31T05:40:55.334Z,75.23
2018-07-31T05:43:27.066Z,74.33
2018-07-31T05:45:59.127Z,73.00
2018-07-31T05:48:31.076Z,73.00
2018-07-31T05:51:02.209Z,71.43
2018-07-31T05:53:34.032Z,72.97
2018-07-31T05:56:05.099Z,69.00
2018-07-31T05:58:36.961Z,67.03
2018-07-31T06:01:09.437Z,63.03
2018-07-31T06:03:41.218Z,66.20
2018-07-31T06:06:13.182Z,67.10
2018-07-31T06:08:45.530Z,64.57
2018-07-31T06:11:17.527Z,64.70
2018-07-31T06:13:49.362Z,64.73
2018-07-31T06:16:21.203Z,64.87
2018-07-31T06:18:53.041Z,68.45
2018-07-31T06:21:25.022Z,63.73
2018-07-31T06:23:56.926Z,65.87
2018-07-31T06:26:28.858Z,70.07
2018-07-31T06:29:00.597Z,63.20
2018-07-31T06:31:32.414Z,69.80
2018-07-31T06:34:03.237Z,66.92
2018-07-31T06:36:36.116Z,60.53
2018-07-31T06:39:10.332Z,69.87
2018-07-31T06:41:42.213Z,65.77
2018-07-31T06:44:14.025Z,67.05
2018-07-31T06:46:46.118Z,65.12
2018-07-31T06:49:18.003Z,63.80
2018-07-31T06:51:50.263Z,61.63
2018-07-31T06:54:22.168Z,68.30
2018-07-31T06:56:54.152Z,65.85
2018-07-31T06:59:25.862Z,67.55
2018-07-31T07:01:57.769Z,65.30
2018-07-31T07:04:29.526Z,68.22
2018-07-31T07:07:01.850Z,68.25
2018-07-31T07:09:35.150Z,62.27
2018-07-31T07:12:07.453Z,70.72
2018-07-31T07:14:39.310Z,65.25
2018-07-31T07:17:11.278Z,68.02
2018-07-31T07:19:43.162Z,64.37
2018-07-31T07:22:15.248Z,66.87
2018-07-31T07:24:47.262Z,63.42
2018-07-31T07:27:19.434Z,60.95
2018-07-31T07:29:51.423Z,58.13
2018-07-31T07:32:23.631Z,59.98
2018-07-31T07:34:55.522Z,59.73
2018-07-31T07:37:27.797Z,61.30
2018-07-31T07:39:59.702Z,61.55
2018-07-31T07:42:32.080Z,60.65
2018-07-31T07:45:03.978Z,65.60
2018-07-31T07:47:36.102Z,64.60
2018-07-31T07:50:08.114Z,57.83
2018-07-31T07:52:40.186Z,60.50
2018-07-31T07:55:12.070Z,64.05
2018-07-31T07:57:44.042Z,63.90
2018-07-31T08:00:15.725Z,63.35
2018-07-31T08:02:47.497Z,62.17
2018-07-31T08:05:19.252Z,60.43
2018-07-31T08:07:51.214Z,61.58
2018-07-31T08:10:24.294Z,60.55
2018-07-31T08:12:56.366Z,59.95
2018-07-31T08:15:28.074Z,59.73
2018-07-31T08:18:00.106Z,57.88
2018-07-31T08:20:31.831Z,54.60
2018-07-31T08:23:04.078Z,56.35
2018-07-31T08:25:35.956Z,56.90
2018-07-31T08:28:08.014Z,61.70
2018-07-31T08:30:39.846Z,57.85
2018-07-31T08:33:12.330Z,53.77
2018-07-31T08:35:44.139Z,54.63
2018-07-31T08:38:16.242Z,55.47
2018-07-31T08:40:48.111Z,51.77
2018-07-31T08:43:19.230Z,48.30
2018-07-31T08:45:51.009Z,47.25
2018-07-31T08:48:22.978Z,45.20
2018-07-31T08:50:54.923Z,48.13
2018-07-31T08:53:26.966Z,46.27
2018-07-31T08:55:58.886Z,45.37
2018-07-31T08:58:30.951Z,47.10
2018-07-31T09:01:02.681Z,44.50
2018-07-31T09:03:34.447Z,44.13
2018-07-31T09:06:07.099Z,42.80
2018-07-31T09:08:39.185Z,40.67
2018-07-31T09:11:11.899Z,38.23
2018-07-31T09:13:44.975Z,37.03
2018-07-31T09:16:16.756Z,39.18
2018-07-31T09:18:49.094Z,35.90
2018-07-31T09:21:20.827Z,37.70
2018-07-31T09:23:52.626Z,39.03
2018-07-31T09:26:24.492Z,34.60
2018-07-31T09:28:56.526Z,33.73
2018-07-31T09:31:29.713Z,32.40
2018-07-31T09:34:02.364Z,35.73
2018-07-31T09:36:34.244Z,37.63
2018-07-31T09:39:09.209Z,34.50
2018-07-31T09:41:40.902Z,32.67
2018-07-31T09:44:12.886Z,31.77
2018-07-31T09:46:44.641Z,34.40
2018-07-31T09:49:16.563Z,34.83
2018-07-31T09:51:48.461Z,32.67
2018-07-31T09:54:20.426Z,31.83
2018-07-31T09:56:52.511Z,32.87
2018-07-31T09:59:24.678Z,31.07
2018-07-31T10:01:56.646Z,30.07
2018-07-31T10:04:28.638Z,30.40
2018-07-31T10:07:00.579Z,29.57
2018-07-31T10:09:32.403Z,27.80
2018-07-31T10:12:05.958Z,28.67
2018-07-31T10:14:37.802Z,24.43
2018-07-31T10:17:09.539Z,24.13
2018-07-31T10:19:41.982Z,24.80
2018-07-31T10:22:13.806Z,23.80
2018-07-31T10:24:45.819Z,22.33
2018-07-31T10:27:17.752Z,22.07
2018-07-31T10:29:49.861Z,22.50
2018-07-31T10:32:21.754Z,21.43
2018-07-31T10:34:53.603Z,21.67
2018-07-31T10:37:25.297Z,22.07
2018-07-31T10:39:57.227Z,21.97
2018-07-31T10:42:29.082Z,24.40
2018-07-31T10:45:01.326Z,23.20
2018-07-31T10:47:34.115Z,20.93
2018-07-31T10:50:06.224Z,21.90
2018-07-31T10:52:38.295Z,25.57
2018-07-31T10:55:10.233Z,25.10
2018-07-31T10:57:42.079Z,27.23
2018-07-31T11:00:15.296Z,26.80
2018-07-31T11:02:47.070Z,26.33
2018-07-31T11:05:19.082Z,28.90
2018-07-31T11:07:50.920Z,26.87
2018-07-31T11:10:22.276Z,27.00
2018-07-31T11:12:54.779Z,28.10
2018-07-31T11:15:26.529Z,27.80
2018-07-31T11:17:58.379Z,26.67
2018-07-31T11:20:30.231Z,27.90
2018-07-31T11:23:02.121Z,28.10
2018-07-31T11:25:34.393Z,27.67
2018-07-31T11:28:06.257Z,27.53
2018-07-31T11:30:38.315Z,26.30
2018-07-31T11:33:10.255Z,26.83
2018-07-31T11:35:42.435Z,25.20
2018-07-31T11:38:14.382Z,24.33
2018-07-31T11:40:46.565Z,24.00
2018-07-31T11:43:18.499Z,23.83
2018-07-31T11:45:50.732Z,24.23
2018-07-31T11:48:21.697Z,24.77
2018-07-31T11:50:53.737Z,26.17
2018-07-31T11:53:25.581Z,23.33
2018-07-31T11:55:57.587Z,25.63
2018-07-31T11:58:29.579Z,23.50
2018-07-31T12:01:01.634Z,23.53
2018-07-31T12:03:33.489Z,25.30
2018-07-31T12:06:05.358Z,22.00
2018-07-31T12:08:36.387Z,25.57
2018-07-31T12:11:08.390Z,24.57
2018-07-31T12:13:41.272Z,24.23
2018-07-31T12:16:12.326Z,24.10
2018-07-31T12:18:44.339Z,24.60
2018-07-31T12:21:16.337Z,24.47
2018-07-31T12:23:47.419Z,25.03
2018-07-31T12:26:19.447Z,24.70
2018-07-31T12:28:51.542Z,25.33
2018-07-31T12:31:23.741Z,24.10
2018-07-31T12:33:55.667Z,25.00
2018-07-31T12:36:27.867Z,26.73
2018-07-31T12:39:00.858Z,28.40
2018-07-31T12:41:33.099Z,25.20
2018-07-31T12:44:05.109Z,22.73
2018-07-31T12:46:37.813Z,25.73
2018-07-31T12:49:10.048Z,26.70
2018-07-31T12:51:42.157Z,25.27
2018-07-31T12:54:12.969Z,26.20
2018-07-31T12:56:45.058Z,27.37
2018-07-31T12:59:17.023Z,27.50
2018-07-31T13:01:49.397Z,25.10
2018-07-31T13:04:21.212Z,25.03
2018-07-31T13:06:53.342Z,25.63
2018-07-31T13:09:25.107Z,25.90
2018-07-31T13:11:57.522Z,25.07
2018-07-31T13:14:32.511Z,25.97
2018-07-31T13:17:04.840Z,26.03
2018-07-31T13:19:36.725Z,23.50
2018-07-31T13:22:08.830Z,25.40
2018-07-31T13:24:40.746Z,22.97
2018-07-31T13:27:12.797Z,23.90
2018-07-31T13:29:44.756Z,22.13
2018-07-31T13:32:16.893Z,24.10
2018-07-31T13:34:48.978Z,23.33
2018-07-31T13:37:20.760Z,24.83
2018-07-31T13:39:52.734Z,23.80
2018-07-31T13:42:24.686Z,24.70
2018-07-31T13:44:57.385Z,24.10
2018-07-31T13:47:29.859Z,22.30
2018-07-31T13:50:00.873Z,24.67
2018-07-31T13:52:33.924Z,24.07
2018-07-31T13:55:06.064Z,23.07
2018-07-31T13:57:38.466Z,25.80
2018-07-31T14:00:09.308Z,24.60
2018-07-31T14:02:40.280Z,26.50
2018-07-31T14:05:12.075Z,24.20
2018-07-31T14:07:44.195Z,25.30
2018-07-31T14:10:16.017Z,24.13
2018-07-31T14:12:48.315Z,24.50
2018-07-31T14:15:20.300Z,24.43
2018-07-31T14:17:52.336Z,25.10
2018-07-31T14:20:25.141Z,25.43
2018-07-31T14:22:57.175Z,23.70
2018-07-31T14:25:28.845Z,22.70
2018-07-31T14:28:00.722Z,25.30
2018-07-31T14:30:32.688Z,24.43
2018-07-31T14:33:04.711Z,22.93
2018-07-31T14:35:36.615Z,23.67
2018-07-31T14:38:09.705Z,24.73
2018-07-31T14:40:41.445Z,25.00
2018-07-31T14:43:13.271Z,24.10
2018-07-31T14:45:45.001Z,23.27
2018-07-31T14:48:17.542Z,23.70
2018-07-31T14:50:49.538Z,24.57
2018-07-31T14:53:21.486Z,24.40
2018-07-31T14:55:53.322Z,24.03
2018-07-31T14:58:25.378Z,23.67
2018-07-31T15:00:57.362Z,24.60
2018-07-31T15:03:29.293Z,25.70
2018-07-31T15:06:01.509Z,26.67
2018-07-31T15:08:38.272Z,26.10
2018-07-31T15:11:09.946Z,25.60
2018-07-31T15:13:42.021Z,24.63
2018-07-31T15:16:14.506Z,23.73
2018-07-31T15:18:45.877Z,26.93
2018-07-31T15:21:17.824Z,26.07
2018-07-31T15:23:49.987Z,26.33
2018-07-31T15:26:23.316Z,26.60
2018-07-31T15:28:54.758Z,25.73
2018-07-31T15:31:26.394Z,24.80
2018-07-31T15:33:58.731Z,25.50
2018-07-31T15:36:30.560Z,24.63
2018-07-31T15:39:03.274Z,25.37
2018-07-31T15:41:35.377Z,24.60
2018-07-31T15:44:07.282Z,23.90
2018-07-31T15:46:39.034Z,26.50
2018-07-31T15:49:11.127Z,24.10
2018-07-31T15:51:43.052Z,26.27
2018-07-31T15:54:15.571Z,24.70
2018-07-31T15:56:47.383Z,25.17
2018-07-31T15:59:19.297Z,29.50
2018-07-31T16:01:51.200Z,26.07
2018-07-31T16:04:23.237Z,25.93
2018-07-31T16:06:55.103Z,27.33
2018-07-31T16:09:27.129Z,24.93
2018-07-31T16:11:58.977Z,24.97
2018-07-31T16:14:31.321Z,26.20
2018-07-31T16:17:04.243Z,26.20
2018-07-31T16:19:36.319Z,24.83
2018-07-31T16:22:07.918Z,26.50
2018-07-31T16:24:38.902Z,26.60
2018-07-31T16:27:10.567Z,25.50
2018-07-31T16:29:43.070Z,26.60
2018-07-31T16:32:14.757Z,25.93
2018-07-31T16:34:47.694Z,29.23
2018-07-31T16:37:19.653Z,26.60
2018-07-31T16:39:52.102Z,26.23
2018-07-31T16:42:24.117Z,28.27
2018-07-31T16:44:56.069Z,26.50
2018-07-31T16:47:28.134Z,28.23
2018-07-31T16:50:00.545Z,28.97
2018-07-31T16:52:32.460Z,26.73
2018-07-31T16:55:04.744Z,26.40
2018-07-31T16:57:36.478Z,26.20
2018-07-31T17:00:09.178Z,25.17
2018-07-31T17:02:40.962Z,26.73
2018-07-31T17:05:13.115Z,26.73
2018-07-31T17:07:45.089Z,25.60
2018-07-31T17:10:17.857Z,25.07
2018-07-31T17:12:49.611Z,26.97
2018-07-31T17:15:20.739Z,26.93
2018-07-31T17:17:53.842Z,25.57
2018-07-31T17:20:25.053Z,26.03
2018-07-31T17:22:56.606Z,24.90
2018-07-31T17:25:28.474Z,26.77
2018-07-31T17:28:00.319Z,26.73
2018-07-31T17:30:32.194Z,26.00
2018-07-31T17:33:04.187Z,23.17
2018-07-31T17:35:36.567Z,25.50
2018-07-31T17:38:07.613Z,28.07
2018-07-31T17:40:39.743Z,26.47
2018-07-31T17:43:11.564Z,28.57
2018-07-31T17:45:43.546Z,24.73
2018-07-31T17:48:15.568Z,25.27
2018-07-31T17:50:47.854Z,25.27
2018-07-31T17:53:19.783Z,25.57
2018-07-31T17:55:51.915Z,23.60
2018-07-31T17:58:23.925Z,27.37
2018-07-31T18:00:56.294Z,25.80
2018-07-31T18:03:33.699Z,25.00
2018-07-31T18:06:06.615Z,25.90
2018-07-31T18:08:38.695Z,26.03
2018-07-31T18:11:10.395Z,27.93
2018-07-31T18:13:42.123Z,29.23
2018-07-31T18:16:14.290Z,30.37
2018-07-31T18:18:47.885Z,29.83
2018-07-31T18:21:19.867Z,28.50
2018-07-31T18:23:51.761Z,30.37
2018-07-31T18:26:23.898Z,29.10
2018-07-31T18:28:55.863Z,28.00
2018-07-31T18:31:28.071Z,27.63
2018-07-31T18:33:59.595Z,27.63
2018-07-31T18:36:31.821Z,27.23
2018-07-31T18:39:04.492Z,27.93
2018-07-31T18:41:36.672Z,29.40
2018-07-31T18:44:09.048Z,30.67
2018-07-31T18:46:41.348Z,31.03
2018-07-31T18:49:13.066Z,33.73
2018-07-31T18:51:45.314Z,32.50
2018-07-31T18:54:17.247Z,32.67
2018-07-31T18:56:49.443Z,33.83
2018-07-31T18:59:21.382Z,34.20
2018-07-31T19:01:53.569Z,35.87
2018-07-31T19:04:25.587Z,36.73
2018-07-31T19:06:57.824Z,35.47
2018-07-31T19:09:29.765Z,35.97
2018-07-31T19:12:02.007Z,39.03
2018-07-31T19:14:33.878Z,37.30
2018-07-31T19:17:05.993Z,37.13
2018-07-31T19:19:40.557Z,38.70
2018-07-31T19:22:12.555Z,39.63
2018-07-31T19:24:44.342Z,37.23
2018-07-31T19:27:16.455Z,38.67
2018-07-31T19:29:48.111Z,37.10
2018-07-31T19:32:20.651Z,37.27
2018-07-31T19:34:52.446Z,35.97
2018-07-31T19:37:24.436Z,36.30
2018-07-31T19:39:56.374Z,38.40
2018-07-31T19:42:27.505Z,35.57
2018-07-31T19:44:59.283Z,35.20
2018-07-31T19:47:31.977Z,34.10
2018-07-31T19:50:03.739Z,32.70
2018-07-31T19:52:35.790Z,34.07
2018-07-31T19:55:06.619Z,37.50
2018-07-31T19:57:38.761Z,33.93
2018-07-31T20:00:10.871Z,34.37
2018-07-31T20:02:43.258Z,36.90
2018-07-31T20:05:15.006Z,33.37
2018-07-31T20:07:47.346Z,35.83
2018-07-31T20:10:19.231Z,34.77
2018-07-31T20:12:51.059Z,36.93
2018-07-31T20:15:22.894Z,36.37
2018-07-31T20:17:54.833Z,37.33
2018-07-31T20:20:27.411Z,39.30
2018-07-31T20:22:59.502Z,37.10
2018-07-31T20:25:31.302Z,36.60
2018-07-31T20:28:03.494Z,37.67
2018-07-31T20:30:35.319Z,38.50
2018-07-31T20:33:07.296Z,37.27
2018-07-31T20:35:38.291Z,39.77
2018-07-31T20:38:10.371Z,39.67
2018-07-31T20:40:42.454Z,38.30
2018-07-31T20:43:14.743Z,40.43
2018-07-31T20:45:46.678Z,37.10
2018-07-31T20:48:18.631Z,39.70
2018-07-31T20:50:50.635Z,39.83
2018-07-31T20:53:22.577Z,41.13
2018-07-31T20:55:54.506Z,41.00
2018-07-31T20:58:26.687Z,41.73
2018-07-31T21:00:58.541Z,42.37
2018-07-31T21:03:30.763Z,40.27
2018-07-31T21:06:02.995Z,42.03
2018-07-31T21:08:35.159Z,41.17
2018-07-31T21:11:06.946Z,42.67
2018-07-31T21:13:39.018Z,42.67
2018-07-31T21:16:10.925Z,44.40
2018-07-31T21:18:42.989Z,43.80
2018-07-31T21:21:15.523Z,43.20
2018-07-31T21:23:47.866Z,45.20
2018-07-31T21:26:19.664Z,43.63
2018-07-31T21:28:51.942Z,44.37
2018-07-31T21:31:23.978Z,47.53
2018-07-31T21:33:56.173Z,47.20
2018-07-31T21:36:28.342Z,46.37
2018-07-31T21:39:00.610Z,45.20
2018-07-31T21:41:32.324Z,45.03
2018-07-31T21:44:04.735Z,45.60
2018-07-31T21:46:36.609Z,49.10
2018-07-31T21:49:08.755Z,47.27
2018-07-31T21:51:40.785Z,47.87
2018-07-31T21:54:13.883Z,50.47
2018-07-31T21:56:45.666Z,48.67
2018-07-31T21:59:17.706Z,49.73
2018-07-31T22:01:49.059Z,46.80
2018-07-31T22:04:21.606Z,48.07
2018-07-31T22:06:53.510Z,47.10
2018-07-31T22:09:32.275Z,43.10
2018-07-31T22:12:04.069Z,44.57
2018-07-31T22:14:36.394Z,46.13
2018-07-31T22:17:08.434Z,44.13
2018-07-31T22:19:40.696Z,46.07
2018-07-31T22:22:13.218Z,45.30
2018-07-31T22:24:45.110Z,45.70
2018-07-31T22:27:17.012Z,44.33
2018-07-31T22:29:49.934Z,44.90
2018-07-31T22:32:21.974Z,46.33
2018-07-31T22:34:54.235Z,43.40
2018-07-31T22:37:26.320Z,44.27
2018-07-31T22:39:58.767Z,44.97
2018-07-31T22:42:30.463Z,44.97
2018-07-31T22:45:03.266Z,45.20
2018-07-31T22:47:34.880Z,41.37
2018-07-31T22:50:07.677Z,41.40
2018-07-31T22:52:39.417Z,39.17
2018-07-31T22:55:10.664Z,41.30
2018-07-31T22:57:42.359Z,44.47
2018-07-31T23:00:14.310Z,41.40
2018-07-31T23:02:46.149Z,43.20
2018-07-31T23:05:18.063Z,41.93
2018-07-31T23:07:49.969Z,43.93
2018-07-31T23:10:22.286Z,42.40
2018-07-31T23:12:54.059Z,42.67
2018-07-31T23:15:25.907Z,45.17
2018-07-31T23:17:57.571Z,43.27
2018-07-31T23:20:30.325Z,42.70
2018-07-31T23:23:03.304Z,43.23
2018-07-31T23:25:35.441Z,42.03
2018-07-31T23:28:07.436Z,41.73
2018-07-31T23:30:39.540Z,38.33
2018-07-31T23:33:11.294Z,43.20
2018-07-31T23:35:43.782Z,43.73
2018-07-31T23:38:16.695Z,43.27
2018-07-31T23:40:48.825Z,44.10
2018-07-31T23:43:21.618Z,43.20
2018-07-31T23:45:53.442Z,44.80
2018-07-31T23:48:25.360Z,42.07
2018-07-31T23:50:57.619Z,43.67
2018-07-31T23:53:29.446Z,45.80
2018-07-31T23:56:01.601Z,45.73
2018-07-31T23:58:33.415Z,41.97
